createdAt,value
2023-01-10T00:01:10.529Z,373.00
2023-01-10T00:32:09.274Z,353.00
2023-01-10T01:34:55.576Z,363.00
2023-01-10T02:05:58.977Z,363.00
2023-01-10T02:21:00.168Z,368.00
2023-01-10T02:36:00.670Z,373.00
2023-01-10T02:51:02.973Z,368.00
2023-01-10T03:06:02.165Z,374.00
2023-01-10T03:21:03.643Z,377.00
2023-01-10T03:52:03.257Z,367.00
2023-01-10T06:30:25.568Z,369.00
2023-01-10T06:45:25.221Z,369.00
2023-01-10T07:00:25.829Z,374.00
2023-01-10T07:15:26.159Z,369.00
2023-01-10T07:30:26.758Z,371.00
2023-01-10T07:45:35.586Z,373.00
2023-01-10T08:00:27.676Z,377.00
2023-01-10T08:15:28.400Z,381.00
2023-01-10T08:30:29.146Z,375.00
2023-01-10T08:45:29.933Z,374.00
2023-01-10T09:00:30.755Z,374.00
2023-01-10T09:15:31.024Z,369.00
2023-01-10T09:30:35.822Z,366.00
2023-01-10T09:45:31.641Z,371.00
2023-01-10T10:00:32.058Z,378.00
2023-01-10T10:15:32.455Z,372.00
2023-01-10T10:30:32.921Z,372.00
2023-01-10T10:45:33.704Z,377.00
2023-01-10T11:00:34.389Z,366.00
2023-01-10T11:15:35.168Z,371.00
2023-01-10T11:30:35.656Z,379.00
2023-01-10T11:45:36.062Z,370.00
2023-01-10T12:00:36.460Z,374.00
2023-01-10T12:15:44.631Z,374.00
2023-01-10T12:30:37.485Z,369.00
2023-01-10T12:45:37.877Z,369.00
2023-01-10T13:00:47.867Z,377.00
2023-01-10T13:15:38.800Z,371.00
2023-01-10T13:30:39.075Z,385.00
2023-01-10T13:45:39.638Z,382.00
2023-01-10T14:00:40.251Z,381.00
2023-01-10T14:15:41.158Z,376.00
2023-01-10T14:30:41.623Z,374.00
2023-01-10T14:45:41.990Z,380.00
2023-01-10T15:00:42.768Z,379.00
2023-01-10T15:15:43.625Z,392.00
2023-01-10T15:30:44.116Z,391.00
2023-01-10T15:45:44.420Z,386.00
2023-01-10T16:00:45.196Z,392.00
2023-01-10T16:15:45.501Z,388.00
2023-01-10T16:30:46.252Z,391.00
2023-01-10T16:45:46.820Z,395.00
2023-01-10T17:00:47.213Z,397.00
2023-01-10T17:31:36.284Z,391.00
2023-01-10T17:46:38.042Z,399.00
2023-01-10T18:01:38.923Z,408.00
2023-01-10T18:16:39.485Z,415.00
2023-01-10T18:31:40.263Z,419.00
2023-01-10T18:46:40.643Z,417.00
2023-01-10T19:01:41.469Z,420.00
2023-01-10T19:16:41.794Z,427.00
2023-01-10T19:31:42.299Z,429.00
2023-01-10T19:46:42.535Z,428.00
2023-01-10T20:01:43.293Z,428.00
2023-01-10T20:16:43.833Z,421.00
2023-01-10T20:31:44.578Z,424.00
2023-01-10T20:46:44.995Z,423.00
2023-01-10T21:01:45.305Z,435.00
2023-01-10T21:16:45.992Z,434.00
2023-01-10T21:31:46.412Z,433.00
2023-01-10T21:46:46.845Z,422.00
2023-01-10T22:01:47.124Z,420.00
2023-01-10T22:16:47.898Z,423.00
2023-01-10T22:31:48.361Z,423.00
2023-01-10T22:46:48.683Z,410.00
2023-01-10T23:01:57.149Z,400.00
2023-01-10T23:16:50.311Z,404.00
2023-01-10T23:31:50.825Z,391.00
2023-01-10T23:46:51.296Z,397.00
